createdAt,value
2022-11-29T00:01:40.853Z,1.79
2022-11-29T00:04:11.323Z,1.83
2022-11-29T00:06:40.096Z,1.84
2022-11-29T00:09:12.822Z,1.73
2022-11-29T00:12:00.731Z,1.82
2022-11-29T00:14:29.742Z,1.84
2022-11-29T00:17:02.225Z,1.84
2022-11-29T00:19:33.125Z,1.84
2022-11-29T00:22:02.409Z,1.63
2022-11-29T00:24:32.714Z,1.82
2022-11-29T00:27:02.075Z,1.81
2022-11-29T00:29:31.225Z,1.79
2022-11-29T00:31:59.961Z,1.74
2022-11-29T00:34:28.283Z,1.78
2022-11-29T00:36:58.287Z,1.79
2022-11-29T00:39:26.505Z,1.82
2022-11-29T00:41:55.279Z,1.80
2022-11-29T00:44:23.372Z,1.70
2022-11-29T00:46:54.231Z,1.79
2022-11-29T00:49:24.953Z,1.80
2022-11-29T00:51:53.371Z,1.76
2022-11-29T00:54:23.101Z,1.76
2022-11-29T00:56:54.678Z,1.70
2022-11-29T00:59:23.562Z,1.79
2022-11-29T01:01:51.970Z,1.80
2022-11-29T01:04:20.854Z,1.80
2022-11-29T01:06:51.810Z,1.80
2022-11-29T01:09:20.573Z,1.56
2022-11-29T01:11:51.559Z,1.64
2022-11-29T01:14:19.709Z,1.79
2022-11-29T01:16:48.361Z,1.45
2022-11-29T01:19:16.604Z,1.77
2022-11-29T01:21:45.146Z,1.75
2022-11-29T01:24:13.466Z,1.76
2022-11-29T01:26:42.367Z,1.65
2022-11-29T01:29:14.158Z,1.74
2022-11-29T01:31:42.662Z,1.64
2022-11-29T01:34:11.782Z,1.42
2022-11-29T01:36:39.969Z,1.69
2022-11-29T01:39:08.629Z,1.69
2022-11-29T01:41:38.296Z,1.70
2022-11-29T01:44:08.826Z,1.64
2022-11-29T01:46:43.234Z,1.49
2022-11-29T01:49:22.223Z,1.34
2022-11-29T01:51:54.360Z,1.65
2022-11-29T01:54:23.318Z,1.67
2022-11-29T01:56:53.382Z,1.70
2022-11-29T01:59:27.173Z,1.73
2022-11-29T02:02:09.924Z,1.54
2022-11-29T02:04:39.823Z,1.71
2022-11-29T02:07:08.032Z,1.62
2022-11-29T02:09:37.561Z,1.58
2022-11-29T02:12:13.029Z,1.63
2022-11-29T02:14:56.857Z,1.62
2022-11-29T02:17:34.688Z,1.55
2022-11-29T02:20:39.304Z,1.68
2022-11-29T02:23:22.692Z,1.59
2022-11-29T02:26:05.415Z,1.57
2022-11-29T02:29:01.887Z,1.64
2022-11-29T02:32:00.267Z,1.64
2022-11-29T02:34:48.638Z,1.23
2022-11-29T02:37:43.642Z,1.68
2022-11-29T02:40:35.954Z,1.65
2022-11-29T02:43:23.681Z,1.54
2022-11-29T02:46:08.510Z,1.54
2022-11-29T02:48:52.709Z,1.64
2022-11-29T02:51:31.567Z,1.43
2022-11-29T02:54:07.791Z,1.60
2022-11-29T02:56:42.046Z,1.58
2022-11-29T02:59:16.997Z,1.18
2022-11-29T03:01:57.193Z,1.56
2022-11-29T03:04:33.017Z,1.38
2022-11-29T03:07:12.374Z,1.57
2022-11-29T03:09:45.206Z,1.56
2022-11-29T03:12:23.105Z,1.56
2022-11-29T03:15:02.475Z,1.56
2022-11-29T03:17:38.136Z,1.54
2022-11-29T03:20:25.330Z,1.12
2022-11-29T03:23:15.810Z,1.57
2022-11-29T03:25:47.492Z,1.60
2022-11-29T03:28:20.703Z,1.52
2022-11-29T03:31:32.691Z,1.45
2022-11-29T03:34:14.052Z,1.45
2022-11-29T03:36:48.114Z,1.39
2022-11-29T03:39:22.328Z,0.96
2022-11-29T03:41:56.569Z,1.34
2022-11-29T03:44:29.212Z,1.34
2022-11-29T03:47:04.723Z,1.32
2022-11-29T03:49:39.306Z,1.29
2022-11-29T03:52:17.043Z,1.28
2022-11-29T03:54:58.308Z,1.27
2022-11-29T03:57:32.708Z,1.30
2022-11-29T04:00:06.830Z,1.28
2022-11-29T04:03:15.953Z,1.19
2022-11-29T04:06:05.562Z,1.21
2022-11-29T04:09:08.186Z,1.25
2022-11-29T04:12:22.526Z,1.22
2022-11-29T04:15:31.343Z,1.14
2022-11-29T04:18:34.993Z,1.15
2022-11-29T04:21:31.556Z,1.12
2022-11-29T04:24:41.158Z,1.11
2022-11-29T04:28:01.127Z,0.96
2022-11-29T04:30:38.140Z,0.76
2022-11-29T04:33:34.015Z,1.05
2022-11-29T04:36:30.331Z,1.03
2022-11-29T04:39:25.412Z,1.06
2022-11-29T04:42:19.317Z,1.04
2022-11-29T04:45:05.730Z,0.98
2022-11-29T04:47:52.764Z,1.05
2022-11-29T04:50:33.618Z,1.02
2022-11-29T04:53:50.859Z,1.04
2022-11-29T04:56:28.864Z,0.93
2022-11-29T04:59:03.661Z,1.00
2022-11-29T05:01:47.576Z,0.90
2022-11-29T05:04:22.664Z,0.94
2022-11-29T05:07:02.857Z,0.92
2022-11-29T05:09:54.513Z,0.94
2022-11-29T05:12:30.053Z,0.96
2022-11-29T05:15:21.207Z,1.00
2022-11-29T05:18:00.282Z,0.90
2022-11-29T05:20:40.235Z,0.96
2022-11-29T05:23:31.135Z,0.94
2022-11-29T05:26:06.837Z,0.57
2022-11-29T05:28:46.368Z,0.89
2022-11-29T05:31:48.860Z,0.90
2022-11-29T05:34:35.131Z,0.92
2022-11-29T05:37:14.150Z,0.95
2022-11-29T05:39:57.156Z,0.65
2022-11-29T05:42:57.813Z,0.81
2022-11-29T05:45:30.673Z,0.93
2022-11-29T05:48:05.971Z,0.89
2022-11-29T05:50:41.599Z,0.70
2022-11-29T05:53:20.445Z,0.90
2022-11-29T05:56:00.361Z,0.91
2022-11-29T05:58:40.338Z,0.87
2022-11-29T06:01:19.963Z,0.88
2022-11-29T06:03:58.028Z,0.62
2022-11-29T06:06:34.090Z,0.87
2022-11-29T06:09:10.171Z,0.81
2022-11-29T06:11:45.201Z,0.83
2022-11-29T06:14:25.821Z,0.64
2022-11-29T06:17:25.570Z,0.82
2022-11-29T06:20:00.614Z,0.84
2022-11-29T06:22:51.931Z,0.84
2022-11-29T06:25:33.025Z,0.82
2022-11-29T06:28:22.705Z,0.84
2022-11-29T06:30:56.421Z,0.83
2022-11-29T06:33:28.558Z,0.83
2022-11-29T06:36:11.922Z,0.81
2022-11-29T06:38:42.434Z,0.77
2022-11-29T06:41:19.460Z,0.76
2022-11-29T06:43:49.437Z,0.69
2022-11-29T06:46:24.026Z,0.69
2022-11-29T06:48:59.158Z,0.72
2022-11-29T06:51:35.910Z,0.69
2022-11-29T06:54:18.412Z,0.73
2022-11-29T06:56:56.271Z,0.56
2022-11-29T06:59:39.098Z,0.72
2022-11-29T07:02:21.608Z,0.73
2022-11-29T07:05:07.348Z,0.74
2022-11-29T07:07:36.226Z,0.56
2022-11-29T07:10:11.952Z,0.73
2022-11-29T07:12:43.368Z,0.71
2022-11-29T07:15:15.628Z,0.75
2022-11-29T07:17:57.026Z,0.75
2022-11-29T07:20:34.066Z,0.75
2022-11-29T07:23:10.854Z,0.69
2022-11-29T07:25:52.902Z,0.76
2022-11-29T07:28:32.404Z,0.77
2022-11-29T07:31:10.356Z,0.70
2022-11-29T07:33:51.191Z,0.76
2022-11-29T07:36:30.008Z,0.75
2022-11-29T07:39:12.641Z,0.80
2022-11-29T07:41:48.298Z,0.80
2022-11-29T07:44:26.613Z,0.89
2022-11-29T07:46:55.107Z,0.78
2022-11-29T07:49:23.226Z,0.83
2022-11-29T07:51:52.076Z,0.85
2022-11-29T07:54:21.099Z,0.80
2022-11-29T07:56:50.790Z,0.81
2022-11-29T07:59:18.954Z,0.84
2022-11-29T08:01:47.345Z,0.87
2022-11-29T08:04:15.428Z,0.97
2022-11-29T08:06:44.003Z,1.12
2022-11-29T08:09:12.133Z,1.29
2022-11-29T08:11:41.226Z,1.07
2022-11-29T08:14:11.460Z,1.00
2022-11-29T08:16:40.217Z,1.00
2022-11-29T08:19:08.526Z,0.96
2022-11-29T08:21:37.257Z,0.89
2022-11-29T08:24:06.629Z,0.78
2022-11-29T08:26:35.295Z,0.90
2022-11-29T08:29:03.439Z,0.92
2022-11-29T08:31:33.714Z,0.88
2022-11-29T08:34:01.940Z,0.91
2022-11-29T08:36:30.328Z,0.99
2022-11-29T08:39:05.943Z,0.99
2022-11-29T08:41:37.373Z,1.02
2022-11-29T08:44:06.413Z,1.02
2022-11-29T08:46:50.949Z,1.03
2022-11-29T08:49:19.403Z,1.10
2022-11-29T08:51:47.869Z,1.08
2022-11-29T08:54:15.038Z,1.07
2022-11-29T08:59:32.054Z,1.07
2022-11-29T09:02:02.017Z,0.93
2022-11-29T09:04:30.180Z,1.11
2022-11-29T09:06:58.562Z,1.07
2022-11-29T09:09:26.733Z,1.07
2022-11-29T09:11:55.140Z,1.13
2022-11-29T09:14:23.405Z,1.18
2022-11-29T09:16:52.133Z,1.15
2022-11-29T09:19:21.768Z,1.14
2022-11-29T09:21:50.333Z,1.15
2022-11-29T09:24:19.833Z,1.16
2022-11-29T09:26:48.910Z,0.94
2022-11-29T09:29:17.883Z,1.20
2022-11-29T09:31:46.735Z,1.13
2022-11-29T09:34:15.534Z,1.21
2022-11-29T09:36:46.431Z,1.34
2022-11-29T09:39:14.672Z,1.15
2022-11-29T09:42:12.266Z,1.37
2022-11-29T09:44:54.221Z,1.42
2022-11-29T09:47:33.715Z,1.17
2022-11-29T09:50:17.868Z,1.32
2022-11-29T09:52:56.960Z,1.40
2022-11-29T09:55:47.744Z,1.26
2022-11-29T09:58:21.034Z,1.34
2022-11-29T10:00:53.388Z,1.41
2022-11-29T10:03:26.817Z,1.42
2022-11-29T10:05:59.554Z,1.51
2022-11-29T10:08:38.045Z,1.28
2022-11-29T10:11:20.891Z,1.51
2022-11-29T10:13:55.210Z,1.57
2022-11-29T10:16:29.637Z,1.58
2022-11-29T10:19:06.150Z,1.61
2022-11-29T10:21:39.725Z,0.84
2022-11-29T10:24:14.860Z,1.01
2022-11-29T10:26:43.763Z,1.54
2022-11-29T10:29:15.530Z,1.50
2022-11-29T10:31:49.340Z,1.53
2022-11-29T10:34:20.385Z,1.38
2022-11-29T10:36:51.148Z,1.51
2022-11-29T10:39:25.580Z,1.18
2022-11-29T10:41:57.644Z,1.16
2022-11-29T10:44:26.974Z,1.66
2022-11-29T10:46:57.191Z,1.55
2022-11-29T10:49:29.532Z,1.51
2022-11-29T10:51:57.635Z,1.54
2022-11-29T10:54:40.000Z,1.59
2022-11-29T10:57:15.394Z,1.50
2022-11-29T11:00:00.259Z,1.22
2022-11-29T11:02:29.037Z,1.57
2022-11-29T11:05:00.027Z,1.51
2022-11-29T11:07:33.333Z,1.58
2022-11-29T11:10:06.639Z,1.60
2022-11-29T11:12:37.067Z,1.56
2022-11-29T11:15:26.003Z,1.49
2022-11-29T11:17:59.874Z,1.64
2022-11-29T11:20:30.389Z,1.45
2022-11-29T11:23:04.676Z,1.66
2022-11-29T11:25:38.951Z,1.17
2022-11-29T11:28:20.595Z,1.39
2022-11-29T11:30:55.484Z,1.62
2022-11-29T11:33:27.855Z,1.72
2022-11-29T11:36:07.131Z,1.64
2022-11-29T11:38:36.444Z,1.66
2022-11-29T11:41:16.616Z,1.68
2022-11-29T11:43:51.911Z,1.67
2022-11-29T11:46:20.680Z,1.68
2022-11-29T11:48:49.539Z,1.61
2022-11-29T11:51:25.918Z,1.62
2022-11-29T11:53:58.622Z,1.58
2022-11-29T11:56:35.977Z,1.59
2022-11-29T11:59:04.908Z,1.36
2022-11-29T12:01:39.021Z,1.59
2022-11-29T12:04:12.803Z,1.43
2022-11-29T12:06:48.176Z,1.62
2022-11-29T12:09:24.926Z,1.59
2022-11-29T12:12:06.089Z,1.61
2022-11-29T12:14:42.175Z,1.21
2022-11-29T12:17:20.346Z,1.51
2022-11-29T12:19:58.912Z,1.50
2022-11-29T12:22:35.111Z,1.54
2022-11-29T12:25:08.542Z,1.56
2022-11-29T12:27:38.478Z,1.32
2022-11-29T12:30:13.775Z,1.51
2022-11-29T12:33:01.451Z,1.52
2022-11-29T12:35:51.821Z,1.57
2022-11-29T12:38:48.311Z,1.50
2022-11-29T12:41:30.612Z,1.53
2022-11-29T12:44:13.749Z,1.59
2022-11-29T12:46:52.142Z,1.47
2022-11-29T12:49:30.941Z,1.47
2022-11-29T12:52:06.965Z,1.59
2022-11-29T12:54:50.159Z,1.55
2022-11-29T12:57:29.438Z,1.41
2022-11-29T13:00:08.653Z,1.61
2022-11-29T13:02:50.588Z,1.37
2022-11-29T13:05:30.901Z,1.45
2022-11-29T13:08:15.508Z,1.51
2022-11-29T13:11:00.383Z,1.48
2022-11-29T13:13:40.112Z,1.49
2022-11-29T13:19:23.755Z,1.39
2022-11-29T13:22:00.190Z,1.44
2022-11-29T13:24:38.386Z,1.39
2022-11-29T13:27:17.428Z,1.45
2022-11-29T13:29:46.068Z,1.45
2022-11-29T13:32:34.404Z,1.34
2022-11-29T13:35:08.577Z,1.38
2022-11-29T13:37:40.434Z,1.18
2022-11-29T13:40:27.252Z,1.31
2022-11-29T13:43:05.306Z,1.08
2022-11-29T13:45:43.418Z,1.31
2022-11-29T13:48:36.428Z,1.28
2022-11-29T13:51:28.551Z,1.25
2022-11-29T13:53:58.680Z,1.26
2022-11-29T13:56:38.490Z,1.18
2022-11-29T13:59:09.448Z,1.24
2022-11-29T14:01:48.611Z,1.06
2022-11-29T14:04:30.160Z,1.22
2022-11-29T14:07:11.362Z,1.12
2022-11-29T14:09:46.276Z,1.24
2022-11-29T14:12:31.209Z,1.26
2022-11-29T14:15:05.204Z,1.23
2022-11-29T14:17:37.479Z,0.99
2022-11-29T14:20:45.876Z,1.20
2022-11-29T14:23:19.062Z,1.20
2022-11-29T14:26:32.902Z,1.18
2022-11-29T14:29:01.555Z,1.20
2022-11-29T14:32:03.726Z,1.13
2022-11-29T14:34:44.317Z,0.96
2022-11-29T14:37:52.729Z,1.13
2022-11-29T14:40:28.873Z,1.20
2022-11-29T14:42:57.638Z,1.16
2022-11-29T14:45:29.958Z,1.17
2022-11-29T14:48:00.688Z,0.83
2022-11-29T14:50:32.865Z,1.07
2022-11-29T14:53:05.091Z,1.09
2022-11-29T14:55:36.871Z,0.98
2022-11-29T14:58:17.567Z,1.13
2022-11-29T15:01:10.622Z,1.16
2022-11-29T15:03:50.767Z,1.08
2022-11-29T15:06:29.036Z,1.11
2022-11-29T15:09:05.344Z,1.09
2022-11-29T15:11:42.509Z,1.11
2022-11-29T15:14:20.181Z,1.15
2022-11-29T15:16:59.503Z,1.08
2022-11-29T15:19:59.221Z,1.12
2022-11-29T15:22:28.912Z,1.07
2022-11-29T15:25:02.121Z,1.03
2022-11-29T15:27:30.354Z,1.01
2022-11-29T15:29:59.975Z,1.03
2022-11-29T15:32:31.127Z,1.01
2022-11-29T15:35:02.299Z,1.02
2022-11-29T15:37:44.931Z,0.99
2022-11-29T15:40:17.378Z,0.61
2022-11-29T15:42:49.515Z,0.98
2022-11-29T15:45:28.372Z,0.99
2022-11-29T15:48:10.655Z,0.98
2022-11-29T15:50:42.677Z,0.98
2022-11-29T15:53:17.328Z,0.93
2022-11-29T15:55:49.945Z,0.95
2022-11-29T15:58:22.532Z,0.92
2022-11-29T16:00:53.362Z,0.94
2022-11-29T16:03:26.831Z,0.90
2022-11-29T16:06:04.558Z,0.84
2022-11-29T16:08:43.600Z,0.81
2022-11-29T16:11:18.318Z,0.96
2022-11-29T16:14:05.930Z,0.89
2022-11-29T16:16:35.601Z,0.87
2022-11-29T16:19:17.368Z,0.84
2022-11-29T16:21:46.199Z,0.92
2022-11-29T16:24:20.703Z,0.94
2022-11-29T16:26:51.874Z,0.93
2022-11-29T16:29:28.623Z,0.90
2022-11-29T16:31:57.430Z,0.89
2022-11-29T16:34:30.018Z,0.88
2022-11-29T16:37:07.459Z,0.90
2022-11-29T16:39:39.115Z,0.89
2022-11-29T16:42:20.606Z,0.84
2022-11-29T16:45:32.553Z,0.59
2022-11-29T16:48:01.702Z,0.63
2022-11-29T16:50:30.942Z,0.87
2022-11-29T16:53:31.955Z,0.84
2022-11-29T16:56:00.039Z,0.86
2022-11-29T16:58:32.850Z,0.86
2022-11-29T17:01:01.487Z,0.69
2022-11-29T17:03:30.053Z,0.82
2022-11-29T17:05:58.354Z,0.82
2022-11-29T17:08:26.744Z,0.86
2022-11-29T17:10:54.790Z,0.82
2022-11-29T17:13:24.472Z,0.75
2022-11-29T17:15:54.045Z,0.79
2022-11-29T17:18:22.420Z,0.76
2022-11-29T17:20:57.739Z,0.81
2022-11-29T17:23:26.137Z,0.80
2022-11-29T17:25:58.110Z,0.71
2022-11-29T17:28:26.811Z,0.79
2022-11-29T17:30:56.311Z,0.79
2022-11-29T17:33:24.770Z,0.58
2022-11-29T17:35:53.077Z,0.76
2022-11-29T17:38:21.762Z,0.75
2022-11-29T17:40:49.967Z,0.70
2022-11-29T17:43:18.614Z,0.68
2022-11-29T17:45:47.134Z,0.74
2022-11-29T17:48:17.237Z,0.77
2022-11-29T17:50:45.297Z,0.60
2022-11-29T17:53:13.612Z,0.73
2022-11-29T17:55:41.957Z,0.19
2022-11-29T17:58:10.315Z,0.75
2022-11-29T18:00:38.942Z,0.76
2022-11-29T18:03:07.840Z,0.76
2022-11-29T18:05:37.402Z,0.79
2022-11-29T18:08:05.970Z,0.69
2022-11-29T18:10:36.274Z,0.73
2022-11-29T18:13:04.648Z,0.72
2022-11-29T18:15:33.920Z,0.41
2022-11-29T18:18:02.644Z,0.69
2022-11-29T18:20:30.942Z,0.77
2022-11-29T18:23:06.514Z,0.57
2022-11-29T18:25:39.171Z,0.72
2022-11-29T18:28:11.278Z,0.70
2022-11-29T18:30:39.775Z,0.20
2022-11-29T18:33:08.144Z,0.68
2022-11-29T18:35:36.451Z,0.67
2022-11-29T18:38:15.258Z,0.61
2022-11-29T18:40:45.684Z,0.65
2022-11-29T18:43:17.302Z,0.62
2022-11-29T18:45:52.962Z,0.47
2022-11-29T18:48:21.678Z,0.26
2022-11-29T18:50:49.792Z,0.64
2022-11-29T18:53:19.861Z,0.63
2022-11-29T18:55:48.000Z,0.51
2022-11-29T18:58:16.514Z,0.60
2022-11-29T19:00:44.620Z,0.62
2022-11-29T19:03:13.080Z,0.51
2022-11-29T19:05:50.687Z,0.55
2022-11-29T19:08:21.021Z,0.53
2022-11-29T19:10:49.235Z,0.50
2022-11-29T19:13:17.623Z,0.50
2022-11-29T19:15:53.663Z,0.53
2022-11-29T19:18:22.284Z,0.50
2022-11-29T19:20:51.078Z,0.44
2022-11-29T19:23:21.783Z,0.46
2022-11-29T19:25:50.042Z,0.48
2022-11-29T19:28:18.723Z,0.34
2022-11-29T19:30:55.241Z,0.50
2022-11-29T19:33:23.715Z,0.47
2022-11-29T19:35:52.551Z,0.45
2022-11-29T19:38:22.786Z,0.45
2022-11-29T19:40:50.985Z,0.17
2022-11-29T19:43:19.788Z,0.38
2022-11-29T19:45:48.255Z,0.48
2022-11-29T19:48:17.399Z,0.40
2022-11-29T19:50:45.494Z,0.45
2022-11-29T19:53:14.329Z,0.34
2022-11-29T19:55:44.446Z,0.22
2022-11-29T19:58:16.745Z,0.44
2022-11-29T20:00:45.050Z,0.45
2022-11-29T20:03:13.843Z,0.48
2022-11-29T20:05:42.370Z,0.42
2022-11-29T20:08:10.756Z,0.42
2022-11-29T20:10:40.271Z,-0.33
2022-11-29T20:13:10.647Z,0.43
2022-11-29T20:15:38.952Z,0.41
2022-11-29T20:18:07.660Z,0.40
2022-11-29T20:20:35.918Z,0.38
2022-11-29T20:23:08.645Z,0.34
2022-11-29T20:25:36.828Z,0.45
2022-11-29T20:28:06.826Z,0.44
2022-11-29T20:30:36.662Z,0.44
2022-11-29T20:33:05.412Z,0.30
2022-11-29T20:35:33.876Z,0.42
2022-11-29T20:38:17.572Z,0.39
2022-11-29T20:41:02.297Z,0.40
2022-11-29T20:43:39.970Z,0.43
2022-11-29T20:46:10.473Z,0.08
2022-11-29T20:48:39.244Z,0.46
2022-11-29T20:51:08.289Z,0.43
2022-11-29T20:53:39.932Z,0.47
2022-11-29T20:56:09.678Z,0.40
2022-11-29T20:58:39.487Z,0.41
2022-11-29T21:01:07.987Z,0.43
2022-11-29T21:03:38.153Z,0.42
2022-11-29T21:06:07.284Z,0.25
2022-11-29T21:08:36.098Z,0.44
2022-11-29T21:11:06.528Z,0.29
2022-11-29T21:13:36.078Z,0.40
2022-11-29T21:16:05.698Z,-0.18
2022-11-29T21:18:37.555Z,0.43
2022-11-29T21:21:15.407Z,0.44
2022-11-29T21:23:53.881Z,0.43
2022-11-29T21:26:26.841Z,0.30
2022-11-29T21:29:06.945Z,0.44
2022-11-29T21:31:35.571Z,0.39
2022-11-29T21:34:08.959Z,0.45
2022-11-29T21:36:38.120Z,0.15
2022-11-29T21:39:08.650Z,0.44
2022-11-29T21:41:36.963Z,0.46
2022-11-29T21:44:07.799Z,0.36
2022-11-29T21:46:36.712Z,-0.25
2022-11-29T21:49:06.918Z,-0.32
2022-11-29T21:51:35.253Z,0.49
2022-11-29T21:54:03.956Z,-0.73
2022-11-29T21:56:32.873Z,-0.76
2022-11-29T21:59:01.845Z,0.46
2022-11-29T22:01:30.060Z,0.28
2022-11-29T22:03:58.776Z,0.47
2022-11-29T22:06:31.272Z,-0.27
2022-11-29T22:09:00.260Z,-0.43
2022-11-29T22:11:35.493Z,0.49
2022-11-29T22:14:15.165Z,0.23
2022-11-29T22:16:45.171Z,-0.11
2022-11-29T22:19:15.931Z,0.22
2022-11-29T22:21:47.784Z,0.47
2022-11-29T22:24:18.130Z,0.47
2022-11-29T22:26:46.948Z,-0.21
2022-11-29T22:29:17.864Z,0.18
2022-11-29T22:31:49.717Z,0.42
2022-11-29T22:34:18.388Z,0.48
2022-11-29T22:36:49.321Z,-0.15
2022-11-29T22:39:17.998Z,0.47
2022-11-29T22:41:52.231Z,0.47
2022-11-29T22:44:23.618Z,-0.25
2022-11-29T22:46:52.224Z,0.44
2022-11-29T22:49:21.002Z,0.42
2022-11-29T22:51:52.459Z,0.50
2022-11-29T22:54:21.506Z,0.52
2022-11-29T22:56:49.992Z,-0.15
2022-11-29T22:59:18.526Z,-0.41
2022-11-29T23:01:47.280Z,0.47
2022-11-29T23:04:15.829Z,0.16
2022-11-29T23:06:46.092Z,0.29
2022-11-29T23:09:19.935Z,0.50
2022-11-29T23:11:52.162Z,0.49
2022-11-29T23:14:22.156Z,0.50
2022-11-29T23:16:50.906Z,-0.16
2022-11-29T23:19:19.681Z,0.02
2022-11-29T23:21:48.626Z,0.46
2022-11-29T23:24:18.523Z,-0.08
2022-11-29T23:26:48.508Z,0.29
2022-11-29T23:29:21.464Z,0.19
2022-11-29T23:31:52.795Z,0.56
2022-11-29T23:34:21.520Z,0.36
2022-11-29T23:36:52.831Z,-0.25
2022-11-29T23:39:23.244Z,-0.11
2022-11-29T23:41:51.483Z,0.59
2022-11-29T23:44:19.865Z,0.51
2022-11-29T23:46:47.933Z,0.47
2022-11-29T23:49:16.372Z,0.46
2022-11-29T23:51:44.457Z,0.50
2022-11-29T23:54:12.968Z,0.40
2022-11-29T23:56:42.567Z,0.52
2022-11-29T23:59:11.495Z,0.51
